createdAt,value
2022-08-20T15:25:27.346Z,2.42
2022-08-20T15:54:55.160Z,2.40
2022-08-20T16:05:23.162Z,2.57
2022-08-20T16:09:40.050Z,2.50
2022-08-20T16:13:48.028Z,2.63
2022-08-20T16:17:58.098Z,2.50
2022-08-20T16:22:03.462Z,2.40
2022-08-20T16:26:18.716Z,2.63
2022-08-20T16:30:31.217Z,2.80
2022-08-20T16:34:38.553Z,2.90
2022-08-20T16:38:45.911Z,2.77
2022-08-20T16:42:50.142Z,3.63
2022-08-20T16:46:55.931Z,3.03
2022-08-20T16:51:01.315Z,3.40
2022-08-20T16:55:04.700Z,3.67
2022-08-20T16:59:08.871Z,3.33
2022-08-20T17:03:21.493Z,3.50
2022-08-20T17:07:46.046Z,3.00
2022-08-20T17:11:49.348Z,3.70
2022-08-20T17:15:54.903Z,2.77
2022-08-20T17:19:58.910Z,3.53
2022-08-20T17:24:03.815Z,3.20
2022-08-20T17:28:15.253Z,3.33
2022-08-20T17:32:20.622Z,3.27
2022-08-20T17:36:22.450Z,3.13
2022-08-20T17:40:34.498Z,3.47
2022-08-20T17:44:42.141Z,3.20
2022-08-20T17:48:45.689Z,3.27
2022-08-20T17:52:50.698Z,3.07
2022-08-20T17:56:55.753Z,3.47
2022-08-20T18:00:59.762Z,3.27
2022-08-20T18:05:14.262Z,3.57
2022-08-20T18:09:26.285Z,3.20
2022-08-20T18:13:44.888Z,3.50
2022-08-20T18:18:06.884Z,3.20
2022-08-20T18:22:11.614Z,3.27
2022-08-20T18:26:19.071Z,3.90
2022-08-20T18:30:23.190Z,3.43
2022-08-20T18:34:38.957Z,3.47
2022-08-20T18:38:41.898Z,3.50
2022-08-20T18:42:45.689Z,3.77
2022-08-20T18:46:53.205Z,3.50
2022-08-20T18:50:57.539Z,3.20
2022-08-20T18:55:01.258Z,3.57
2022-08-20T18:59:13.362Z,3.30
2022-08-20T19:03:23.384Z,3.10
2022-08-20T19:07:43.298Z,3.50
2022-08-20T19:12:04.084Z,3.37
2022-08-20T19:21:16.037Z,3.73
2022-08-20T19:25:25.926Z,3.37
2022-08-20T19:29:30.550Z,3.40
2022-08-20T19:33:32.730Z,3.20
2022-08-20T19:37:51.166Z,3.80
2022-08-20T19:41:58.490Z,3.10
2022-08-20T19:46:01.428Z,3.87
2022-08-20T19:50:19.158Z,3.67
2022-08-20T19:54:22.791Z,3.50
2022-08-20T19:58:26.742Z,3.60
2022-08-20T20:02:32.054Z,3.40
2022-08-20T20:06:41.306Z,3.60
2022-08-20T20:10:43.726Z,3.80
2022-08-20T20:14:47.571Z,3.63
2022-08-20T20:19:09.098Z,4.10
2022-08-20T20:23:14.372Z,3.73
2022-08-20T20:27:21.766Z,4.37
2022-08-20T20:31:28.587Z,3.37
2022-08-20T20:35:32.534Z,3.47
2022-08-20T20:39:36.898Z,3.67
2022-08-20T20:43:42.939Z,3.83
2022-08-20T20:47:51.948Z,3.47
2022-08-20T20:51:57.367Z,3.93
2022-08-20T20:55:58.878Z,4.10
2022-08-20T21:00:00.423Z,3.50
2022-08-20T21:04:03.729Z,3.50
2022-08-20T21:08:08.684Z,3.43
2022-08-20T21:12:11.520Z,3.77
2022-08-20T21:16:13.052Z,4.43
2022-08-20T21:20:15.985Z,3.57
2022-08-20T21:24:17.596Z,3.37
2022-08-20T21:28:20.088Z,3.47
2022-08-20T21:32:21.939Z,3.47
2022-08-20T21:36:25.271Z,3.80
2022-08-20T21:40:28.394Z,3.67
2022-08-20T21:44:32.023Z,2.90
2022-08-20T21:48:33.719Z,3.23
2022-08-20T21:52:36.931Z,3.20
2022-08-20T21:56:45.518Z,3.23
2022-08-20T22:00:53.881Z,3.20
2022-08-20T22:04:55.650Z,3.30
2022-08-20T22:08:58.622Z,3.50
2022-08-20T22:13:00.158Z,3.40
2022-08-20T22:17:01.965Z,3.30
2022-08-20T22:21:07.938Z,3.13
2022-08-20T22:25:12.262Z,3.40
2022-08-20T22:29:15.261Z,2.83
2022-08-20T22:33:21.513Z,3.50
2022-08-20T22:37:24.622Z,2.90
2022-08-20T22:41:28.009Z,3.60
2022-08-20T22:45:29.813Z,3.00
2022-08-20T22:49:36.285Z,3.73
2022-08-20T22:53:37.889Z,3.00
2022-08-20T22:57:40.997Z,3.50
2022-08-20T23:01:44.340Z,3.27
2022-08-20T23:05:47.257Z,3.57
2022-08-20T23:09:48.901Z,3.93
2022-08-20T23:13:51.907Z,3.80
2022-08-20T23:17:59.817Z,3.50
2022-08-20T23:22:01.484Z,3.70
2022-08-20T23:26:03.231Z,3.50
2022-08-20T23:30:07.481Z,5.60
2022-08-20T23:34:09.482Z,5.57
2022-08-20T23:38:11.701Z,6.00
2022-08-20T23:42:14.145Z,6.27
2022-08-20T23:46:18.664Z,5.63
2022-08-20T23:50:24.095Z,6.50
2022-08-20T23:54:26.154Z,6.53
2022-08-20T23:58:27.721Z,6.30
